Don Carlton — WDE8670 — position and weather

sailwx.info

Track history (hours):
 
Tides and Currents Weather Stations Pressure Air Temp Water Temp Dewpoint Dewpoint Depression Visibility Wind Speed Wind Dir Waves Ship Positions

Don Carlton

Owner: Florida Marine Transporters, Inc., Mandeville, LA. More information available from US FCC via Universal Licensing System and Coast Guard Vessel Documentation Center.

Last reported at 2018-May-18 17:26 UTC. Time now 2018-May-20 15:38 UTC.
Position N 29°55' W 090°04'.

Length 28 m; draft 2.7 m.

Type: Towing. MMSI: 367408160.

Date/timePositionNaut miles runAvg speedWind from/ knotsBaromVisibWave heightAir tempDewpointWater temp
2018-May-18 17:26N 29°55' W 090°04'  
2018-May-15 13:44N 30°24' W 086°52'1 4.2
2018-May-15 13:25N 30°24' W 086°50'2 4.2
2018-May-15 13:00N 30°24' W 086°48'17 4.6
2018-May-15 09:16N 30°26' W 086°28'1 5.5
2018-May-15 09:00N 30°26' W 086°27'3 5.4
2018-May-15 08:30N 30°26' W 086°24'  
2018-May-10 05:20N 30°26' W 086°22'2 5.4
2018-May-10 05:00N 30°26' W 086°24'3 5.4
2018-May-10 04:30N 30°26' W 086°27'1 0.0
2018-May-09 08:37N 30°26' W 086°28'1 5.4
2018-May-09 08:30N 30°26' W 086°27'3 5.3
2018-May-09 07:59N 30°26' W 086°24'  
Track history (hours):
 
Tides and Currents Weather Stations Pressure Air Temp Water Temp Dewpoint Dewpoint Depression Visibility Wind Speed Wind Dir Waves Ship Positions

Don Carlton

Owner: Florida Marine Transporters, Inc., Mandeville, LA. More information available from US FCC via Universal Licensing System and Coast Guard Vessel Documentation Center.

Last reported at 2018-May-18 17:26 UTC. Time now 2018-May-20 15:38 UTC.
Position N 29°55' W 090°04'.

Length 28 m; draft 2.7 m.

Type: Towing. MMSI: 367408160.

Date/timePositionNaut miles runAvg speedWind from/ knotsBaromVisibWave heightAir tempDewpointWater temp
2018-May-18 17:26N 29°55' W 090°04'  
2018-May-15 13:44N 30°24' W 086°52'1 4.2
2018-May-15 13:25N 30°24' W 086°50'2 4.2
2018-May-15 13:00N 30°24' W 086°48'17 4.6
2018-May-15 09:16N 30°26' W 086°28'1 5.5
2018-May-15 09:00N 30°26' W 086°27'3 5.4
2018-May-15 08:30N 30°26' W 086°24'  
2018-May-10 05:20N 30°26' W 086°22'2 5.4
2018-May-10 05:00N 30°26' W 086°24'3 5.4
2018-May-10 04:30N 30°26' W 086°27'1 0.0
2018-May-09 08:37N 30°26' W 086°28'1 5.4
2018-May-09 08:30N 30°26' W 086°27'3 5.3
2018-May-09 07:59N 30°26' W 086°24'  

Dump ship's entire track history